createdAt,value
2018-07-04T00:00:04.769Z,5.70
2018-07-04T00:02:44.590Z,5.37
2018-07-04T00:05:24.116Z,4.83
2018-07-04T00:08:03.978Z,5.30
2018-07-04T00:10:43.854Z,5.30
2018-07-04T00:13:23.466Z,4.80
2018-07-04T00:16:03.110Z,5.53
2018-07-04T00:18:42.617Z,5.50
2018-07-04T00:21:16.281Z,5.77
2018-07-04T00:23:56.118Z,4.93
2018-07-04T00:26:35.831Z,5.20
2018-07-04T00:29:15.465Z,5.40
2018-07-04T00:31:49.185Z,5.07
2018-07-04T00:34:28.811Z,5.07
2018-07-04T00:37:02.395Z,5.40
2018-07-04T00:39:42.165Z,5.70
2018-07-04T00:42:15.762Z,5.63
2018-07-04T00:44:55.466Z,5.80
2018-07-04T00:47:34.965Z,5.57
2018-07-04T00:50:14.779Z,5.43
2018-07-04T00:52:54.369Z,5.50
2018-07-04T00:55:33.882Z,5.57
2018-07-04T00:58:07.585Z,5.17
2018-07-04T01:00:47.136Z,5.07
2018-07-04T01:03:20.673Z,5.33
2018-07-04T01:06:00.382Z,4.57
2018-07-04T01:08:34.005Z,5.03
2018-07-04T01:11:13.866Z,4.87
2018-07-04T01:13:53.698Z,5.03
2018-07-04T01:16:33.394Z,4.97
2018-07-04T01:19:13.031Z,4.80
2018-07-04T01:21:52.561Z,4.40
2018-07-04T01:24:32.202Z,4.57
2018-07-04T01:27:12.034Z,4.80
2018-07-04T01:29:51.761Z,4.47
2018-07-04T01:32:31.560Z,5.60
2018-07-04T01:35:11.155Z,5.60
2018-07-04T01:37:50.817Z,5.80
2018-07-04T01:48:57.369Z,5.43
2018-07-04T01:51:37.001Z,5.43
2018-07-04T01:54:16.611Z,5.67
2018-07-04T01:56:56.247Z,5.67
2018-07-04T01:59:35.915Z,5.77
2018-07-04T02:02:15.542Z,5.50
2018-07-04T02:04:55.134Z,5.10
2018-07-04T02:07:34.816Z,5.90
2018-07-04T02:10:08.378Z,5.60
2018-07-04T02:12:48.131Z,5.77
2018-07-04T02:15:27.854Z,6.10
2018-07-04T02:18:07.582Z,6.13
2018-07-04T02:20:47.617Z,6.00
2018-07-04T02:23:27.396Z,6.30
2018-07-04T02:26:07.009Z,5.87
2018-07-04T02:28:46.618Z,5.80
2018-07-04T02:31:26.338Z,6.07
2018-07-04T02:34:06.041Z,5.80
2018-07-04T02:36:45.646Z,6.87
2018-07-04T02:39:25.447Z,5.90
2018-07-04T02:42:05.276Z,6.43
2018-07-04T02:44:38.926Z,6.70
2018-07-04T02:47:24.159Z,5.57
2018-07-04T02:50:03.857Z,6.00
2018-07-04T02:52:43.635Z,5.43
2018-07-04T02:55:23.362Z,5.50
2018-07-04T02:58:02.990Z,5.10
2018-07-04T03:00:42.901Z,4.73
2018-07-04T03:03:22.582Z,5.13
2018-07-04T03:06:02.226Z,5.40
2018-07-04T03:08:41.758Z,5.60
2018-07-04T03:11:21.345Z,5.40
2018-07-04T03:14:01.000Z,5.20
2018-07-04T03:16:40.715Z,5.20
2018-07-04T03:19:20.412Z,5.40
2018-07-04T03:22:00.097Z,4.90
2018-07-04T03:24:39.851Z,5.60
2018-07-04T03:27:19.550Z,5.00
2018-07-04T03:29:59.132Z,4.83
2018-07-04T03:32:38.809Z,5.10
2018-07-04T03:35:18.501Z,4.53
2018-07-04T03:37:58.357Z,5.03
2018-07-04T03:40:38.197Z,4.60
2018-07-04T03:43:17.850Z,5.00
2018-07-04T03:45:57.562Z,4.90
2018-07-04T03:48:37.081Z,4.93
2018-07-04T03:51:16.746Z,5.10
2018-07-04T03:53:56.386Z,4.80
2018-07-04T03:56:35.965Z,4.37
2018-07-04T03:59:15.623Z,5.50
2018-07-04T04:01:55.238Z,5.07
2018-07-04T04:04:35.142Z,5.20
2018-07-04T04:07:15.719Z,4.90
2018-07-04T04:09:55.267Z,5.00
2018-07-04T04:12:28.881Z,4.97
2018-07-04T04:15:08.589Z,5.23
2018-07-04T04:17:48.270Z,4.80
2018-07-04T04:20:28.024Z,5.30
2018-07-04T04:23:08.270Z,5.07
2018-07-04T04:25:47.918Z,5.00
2018-07-04T04:28:27.501Z,5.37
2018-07-04T04:31:07.305Z,4.60
2018-07-04T04:33:46.898Z,4.90
2018-07-04T04:36:26.582Z,5.40
2018-07-04T04:39:06.183Z,4.93
2018-07-04T04:41:45.865Z,4.97
2018-07-04T04:44:19.464Z,5.40
2018-07-04T04:46:53.205Z,4.70
2018-07-04T04:49:32.921Z,5.60
2018-07-04T04:52:12.643Z,4.50
2018-07-04T04:54:52.358Z,5.63
2018-07-04T04:57:31.890Z,4.80
2018-07-04T05:00:11.747Z,5.73
2018-07-04T05:02:51.483Z,5.77
2018-07-04T05:05:31.155Z,5.27
2018-07-04T05:08:10.818Z,5.30
2018-07-04T05:10:50.527Z,5.70
2018-07-04T05:13:30.226Z,6.10
2018-07-04T05:16:03.809Z,5.70
2018-07-04T05:18:43.445Z,5.30
2018-07-04T05:21:23.723Z,4.70
2018-07-04T05:24:03.528Z,5.17
2018-07-04T05:26:43.142Z,5.17
2018-07-04T05:29:22.828Z,5.50
2018-07-04T05:32:02.479Z,4.90
2018-07-04T05:34:42.090Z,4.93
2018-07-04T05:37:21.656Z,5.17
2018-07-04T05:40:01.367Z,5.23
2018-07-04T05:42:41.025Z,6.00
2018-07-04T05:45:20.678Z,5.33
2018-07-04T05:48:00.385Z,5.20
2018-07-04T05:50:33.988Z,5.30
2018-07-04T05:53:07.545Z,4.93
2018-07-04T05:55:47.246Z,6.03
2018-07-04T05:58:27.030Z,5.60
2018-07-04T06:01:06.622Z,5.07
2018-07-04T06:03:40.354Z,6.03
2018-07-04T06:06:20.245Z,5.83
2018-07-04T06:09:00.118Z,5.03
2018-07-04T06:11:39.734Z,4.80
2018-07-04T06:14:19.417Z,4.90
2018-07-04T06:16:59.295Z,4.97
2018-07-04T06:19:32.817Z,5.50
2018-07-04T06:22:12.426Z,5.03
2018-07-04T06:24:52.146Z,5.30
2018-07-04T06:27:25.857Z,5.10
2018-07-04T06:29:59.874Z,5.67
2018-07-04T06:32:39.652Z,6.10
2018-07-04T06:35:19.146Z,6.20
2018-07-04T06:37:47.526Z,5.70
2018-07-04T06:40:15.124Z,6.10
2018-07-04T06:42:42.761Z,5.97
2018-07-04T06:45:10.123Z,5.90
2018-07-04T06:47:37.494Z,6.10
2018-07-04T06:50:04.821Z,5.47
2018-07-04T06:52:32.188Z,5.53
2018-07-04T06:54:59.548Z,5.53
2018-07-04T06:57:26.867Z,5.87
2018-07-04T06:59:54.244Z,6.27
2018-07-04T07:02:21.600Z,5.60
2018-07-04T07:04:56.849Z,6.20
2018-07-04T07:07:36.647Z,6.27
2018-07-04T07:10:16.405Z,5.90
2018-07-04T07:12:56.079Z,5.47
2018-07-04T07:15:35.807Z,5.37
2018-07-04T07:18:15.629Z,5.00
2018-07-04T07:20:55.244Z,4.93
2018-07-04T07:23:34.869Z,4.90
2018-07-04T07:26:14.749Z,5.20
2018-07-04T07:28:54.357Z,5.00
2018-07-04T07:31:34.138Z,4.57
2018-07-04T07:34:13.937Z,5.10
2018-07-04T07:36:53.603Z,5.10
2018-07-04T07:39:33.129Z,4.33
2018-07-04T07:42:12.749Z,4.50
2018-07-04T07:44:52.246Z,4.77
2018-07-04T07:47:31.799Z,4.63
2018-07-04T07:50:11.326Z,4.37
2018-07-04T07:52:50.818Z,4.50
2018-07-04T07:55:30.508Z,3.83
2018-07-04T07:58:10.127Z,4.23
2018-07-04T08:00:49.802Z,5.10
2018-07-04T08:03:29.342Z,4.53
2018-07-04T08:06:08.997Z,5.23
2018-07-04T08:08:48.836Z,4.37
2018-07-04T08:11:28.433Z,4.50
2018-07-04T08:14:08.045Z,4.70
2018-07-04T08:16:47.664Z,4.53
2018-07-04T08:19:27.242Z,5.60
2018-07-04T08:22:07.057Z,5.37
2018-07-04T08:24:46.680Z,5.20
2018-07-04T08:27:20.494Z,5.37
2018-07-04T08:29:54.258Z,5.77
2018-07-04T08:32:34.534Z,4.67
2018-07-04T08:35:14.241Z,4.97
2018-07-04T08:37:53.859Z,5.53
2018-07-04T08:40:33.457Z,5.40
2018-07-04T08:43:13.038Z,5.40
2018-07-04T08:45:52.760Z,5.50
2018-07-04T08:48:32.202Z,5.50
2018-07-04T08:51:11.921Z,5.93
2018-07-04T08:53:51.582Z,5.80
2018-07-04T08:56:31.344Z,5.53
2018-07-04T08:59:11.037Z,6.27
2018-07-04T09:01:50.907Z,4.97
2018-07-04T09:04:30.413Z,5.27
2018-07-04T09:07:10.059Z,5.00
2018-07-04T09:09:49.570Z,5.20
2018-07-04T09:12:29.222Z,5.80
2018-07-04T09:15:08.846Z,5.40
2018-07-04T09:17:48.466Z,4.90
2018-07-04T09:20:27.927Z,5.40
2018-07-04T09:23:07.570Z,5.73
2018-07-04T09:25:47.299Z,5.87
2018-07-04T09:28:27.204Z,6.17
2018-07-04T09:31:06.850Z,5.93
2018-07-04T09:33:46.575Z,5.43
2018-07-04T09:36:20.309Z,5.23
2018-07-04T09:39:00.072Z,5.00
2018-07-04T09:41:39.787Z,5.50
2018-07-04T09:44:19.541Z,7.30
2018-07-04T09:46:59.252Z,7.10
2018-07-04T09:49:39.032Z,7.20
2018-07-04T09:52:18.610Z,7.03
2018-07-04T09:54:59.468Z,7.10
2018-07-04T09:57:39.188Z,6.77
2018-07-04T10:00:23.094Z,7.37
2018-07-04T10:03:02.854Z,9.70
2018-07-04T10:05:42.537Z,9.90
2018-07-04T10:08:22.194Z,9.23
2018-07-04T10:11:02.031Z,9.53
2018-07-04T10:13:41.685Z,9.43
2018-07-04T10:16:21.491Z,8.53
2018-07-04T10:19:01.178Z,8.33
2018-07-04T10:21:40.878Z,8.80
2018-07-04T10:24:20.584Z,7.37
2018-07-04T10:27:00.517Z,7.50
2018-07-04T10:29:40.496Z,8.07
2018-07-04T10:32:20.377Z,7.70
2018-07-04T10:34:59.962Z,6.80
2018-07-04T10:37:40.618Z,7.40
2018-07-04T10:40:20.258Z,7.80
2018-07-04T10:42:59.992Z,7.47
2018-07-04T10:45:39.795Z,7.30
2018-07-04T10:48:19.560Z,7.37
2018-07-04T10:50:59.390Z,7.23
2018-07-04T10:53:39.003Z,6.90
2018-07-04T10:56:18.726Z,7.67
2018-07-04T10:58:58.503Z,8.07
2018-07-04T11:01:38.065Z,7.67
2018-07-04T11:04:18.179Z,8.33
2018-07-04T11:06:57.831Z,7.77
2018-07-04T11:09:37.510Z,8.23
2018-07-04T11:12:17.151Z,8.00
2018-07-04T11:14:57.254Z,8.40
2018-07-04T11:17:37.027Z,7.70
2018-07-04T11:20:16.856Z,8.70
2018-07-04T11:22:56.440Z,8.90
2018-07-04T11:25:36.186Z,7.90
2018-07-04T11:28:15.853Z,8.87
2018-07-04T11:30:49.551Z,8.53
2018-07-04T11:33:29.363Z,8.90
2018-07-04T11:36:10.508Z,9.13
2018-07-04T11:38:50.031Z,8.00
2018-07-04T11:41:23.626Z,7.30
2018-07-04T11:44:03.573Z,7.60
2018-07-04T11:46:30.942Z,8.47
2018-07-04T11:49:01.014Z,7.90
2018-07-04T11:51:29.552Z,7.60
2018-07-04T11:53:57.273Z,6.37
2018-07-04T11:56:24.795Z,6.83
2018-07-04T11:58:52.136Z,6.20
2018-07-04T12:01:19.486Z,6.17
2018-07-04T12:03:59.399Z,6.10
2018-07-04T12:06:39.162Z,6.17
2018-07-04T12:09:06.977Z,6.30
2018-07-04T12:11:34.350Z,6.13
2018-07-04T12:14:01.791Z,6.80
2018-07-04T12:16:29.747Z,6.80
2018-07-04T12:18:57.082Z,6.60
2018-07-04T12:21:24.832Z,5.20
2018-07-04T12:23:52.158Z,6.20
2018-07-04T12:26:20.314Z,6.27
2018-07-04T12:28:47.650Z,6.23
2018-07-04T12:31:14.989Z,6.37
2018-07-04T12:33:42.553Z,6.20
2018-07-04T12:36:09.886Z,6.40
2018-07-04T12:38:37.243Z,5.70
2018-07-04T12:41:04.878Z,6.10
2018-07-04T12:43:32.328Z,5.10
2018-07-04T12:45:59.594Z,5.30
2018-07-04T12:48:26.987Z,5.10
2018-07-04T12:50:54.318Z,5.40
2018-07-04T12:53:22.664Z,5.63
2018-07-04T12:56:02.303Z,4.87
2018-07-04T12:58:41.807Z,5.57
2018-07-04T13:01:21.497Z,5.40
2018-07-04T13:04:01.178Z,5.50
2018-07-04T13:06:40.822Z,5.40
2018-07-04T13:09:20.432Z,5.03
2018-07-04T13:12:01.383Z,4.50
2018-07-04T13:14:41.197Z,4.50
2018-07-04T13:17:20.841Z,5.13
2018-07-04T13:20:00.600Z,4.60
2018-07-04T13:22:40.331Z,3.87
2018-07-04T13:25:20.852Z,4.00
2018-07-04T13:28:00.538Z,4.33
2018-07-04T13:30:40.410Z,4.37
2018-07-04T13:33:20.286Z,4.97
2018-07-04T13:36:00.039Z,4.47
2018-07-04T13:38:39.595Z,4.40
2018-07-04T13:41:19.242Z,4.80
2018-07-04T13:43:58.888Z,4.50
2018-07-04T13:46:38.551Z,4.80
2018-07-04T13:49:18.219Z,4.87
2018-07-04T13:51:57.954Z,4.50
2018-07-04T13:54:37.790Z,4.90
2018-07-04T13:57:17.411Z,5.40
2018-07-04T13:59:57.122Z,5.33
2018-07-04T14:02:36.765Z,5.10
2018-07-04T14:05:16.470Z,4.67
2018-07-04T14:07:56.270Z,5.10
2018-07-04T14:10:36.071Z,4.43
2018-07-04T14:13:15.646Z,4.70
2018-07-04T14:15:55.289Z,4.40
2018-07-04T14:18:34.978Z,4.73
2018-07-04T14:21:14.649Z,4.83
2018-07-04T14:23:54.956Z,4.90
2018-07-04T14:26:34.760Z,4.80
2018-07-04T14:29:14.381Z,5.30
2018-07-04T14:31:54.033Z,5.37
2018-07-04T14:34:33.731Z,5.63
2018-07-04T14:37:13.331Z,5.57
2018-07-04T14:39:53.583Z,5.80
2018-07-04T14:42:33.332Z,5.97
2018-07-04T14:45:12.967Z,5.90
2018-07-04T14:47:52.758Z,5.67
2018-07-04T14:50:32.645Z,6.53
2018-07-04T14:53:12.243Z,5.73
2018-07-04T14:55:52.022Z,5.50
2018-07-04T14:58:31.619Z,5.63
2018-07-04T15:01:05.282Z,5.80
2018-07-04T15:03:45.122Z,5.60
2018-07-04T15:06:24.981Z,5.30
2018-07-04T15:09:04.886Z,5.67
2018-07-04T15:11:44.733Z,5.60
2018-07-04T15:14:24.484Z,5.20
2018-07-04T15:17:04.407Z,6.20
2018-07-04T15:19:43.958Z,6.20
2018-07-04T15:22:17.725Z,5.60
2018-07-04T15:24:57.495Z,6.40
2018-07-04T15:27:37.099Z,4.60
2018-07-04T15:30:16.755Z,4.80
2018-07-04T15:32:56.452Z,4.43
2018-07-04T15:35:36.013Z,4.73
2018-07-04T15:38:15.812Z,4.63
2018-07-04T15:40:55.339Z,4.53
2018-07-04T15:43:35.118Z,5.00
2018-07-04T15:46:14.842Z,4.23
2018-07-04T15:48:54.483Z,4.00
2018-07-04T15:51:34.800Z,4.80
2018-07-04T15:54:14.605Z,3.90
2018-07-04T15:56:54.314Z,4.40
2018-07-04T15:59:34.079Z,4.30
2018-07-04T16:02:13.687Z,3.80
2018-07-04T16:04:53.214Z,5.03
2018-07-04T16:07:32.934Z,4.13
2018-07-04T16:10:12.769Z,5.07
2018-07-04T16:12:54.248Z,4.50
2018-07-04T16:15:34.113Z,4.70
2018-07-04T16:18:13.954Z,5.03
2018-07-04T16:20:53.794Z,4.67
2018-07-04T16:23:33.806Z,3.93
2018-07-04T16:26:13.535Z,4.70
2018-07-04T16:28:53.174Z,5.10
2018-07-04T16:31:32.745Z,4.97
2018-07-04T16:34:12.445Z,4.70
2018-07-04T16:36:51.970Z,5.37
2018-07-04T16:39:31.892Z,5.17
2018-07-04T16:42:11.761Z,4.53
2018-07-04T16:44:51.355Z,4.23
2018-07-04T16:47:31.118Z,4.73
2018-07-04T16:50:10.814Z,5.07
2018-07-04T16:52:50.771Z,4.47
2018-07-04T16:55:30.655Z,4.20
2018-07-04T16:58:10.425Z,5.10
2018-07-04T17:00:50.175Z,5.20
2018-07-04T17:03:29.817Z,4.90
2018-07-04T17:06:10.059Z,5.07
2018-07-04T17:08:49.779Z,4.40
2018-07-04T17:11:29.435Z,4.80
2018-07-04T17:14:09.099Z,4.50
2018-07-04T17:16:49.714Z,4.73
2018-07-04T17:19:23.266Z,4.97
2018-07-04T17:22:03.774Z,4.53
2018-07-04T17:24:43.603Z,5.60
2018-07-04T17:27:23.339Z,4.90
2018-07-04T17:30:02.946Z,5.27
2018-07-04T17:32:42.737Z,5.40
2018-07-04T17:35:22.348Z,5.67
2018-07-04T17:38:02.965Z,6.63
2018-07-04T17:40:42.883Z,5.40
2018-07-04T17:43:22.725Z,6.30
2018-07-04T17:46:02.422Z,6.17
2018-07-04T17:48:42.168Z,6.07
2018-07-04T17:51:21.829Z,6.20
2018-07-04T17:53:55.451Z,5.87
2018-07-04T17:56:35.285Z,5.50
2018-07-04T17:59:15.002Z,5.33
2018-07-04T18:01:54.658Z,5.63
2018-07-04T18:04:28.287Z,6.07
2018-07-04T18:07:08.037Z,5.60
2018-07-04T18:09:47.797Z,6.23
2018-07-04T18:12:27.493Z,6.60
2018-07-04T18:15:07.230Z,6.47
2018-07-04T18:17:46.907Z,8.20
2018-07-04T18:20:26.635Z,6.70
2018-07-04T18:23:06.542Z,8.00
2018-07-04T18:25:46.248Z,7.23
2018-07-04T18:28:25.898Z,6.77
2018-07-04T18:31:05.751Z,8.57
2018-07-04T18:33:45.342Z,7.80
2018-07-04T18:36:25.118Z,7.30
2018-07-04T18:39:05.086Z,7.17
2018-07-04T18:41:44.816Z,7.47
2018-07-04T18:44:24.525Z,7.57
2018-07-04T18:47:04.103Z,6.93
2018-07-04T18:49:43.822Z,7.27
2018-07-04T18:52:23.356Z,6.77
2018-07-04T18:55:03.053Z,6.43
2018-07-04T18:57:42.710Z,6.60
2018-07-04T19:00:22.337Z,5.10
2018-07-04T19:03:02.071Z,5.70
2018-07-04T19:05:35.741Z,5.30
2018-07-04T19:08:09.493Z,5.30
2018-07-04T19:10:49.243Z,5.60
2018-07-04T19:13:29.168Z,5.70
2018-07-04T19:16:09.048Z,6.50
2018-07-04T19:18:48.887Z,6.30
2018-07-04T19:21:28.721Z,5.60
2018-07-04T19:24:08.414Z,5.50
2018-07-04T19:26:48.110Z,5.37
2018-07-04T19:29:29.869Z,4.30
2018-07-04T19:32:11.237Z,5.17
2018-07-04T19:34:51.267Z,4.83
2018-07-04T19:37:31.137Z,5.87
2018-07-04T19:40:10.733Z,4.83
2018-07-04T19:42:50.463Z,5.03
2018-07-04T19:45:30.221Z,5.27
2018-07-04T19:48:09.153Z,5.30
2018-07-04T19:50:48.833Z,5.20
2018-07-04T19:53:29.907Z,4.60
2018-07-04T19:56:09.656Z,5.00
2018-07-04T19:58:49.320Z,5.40
2018-07-04T20:01:29.026Z,4.73
2018-07-04T20:04:08.963Z,6.00
2018-07-04T20:06:48.580Z,5.80
2018-07-04T20:09:28.331Z,5.90
2018-07-04T20:12:08.114Z,5.17
2018-07-04T20:14:47.891Z,5.57
2018-07-04T20:17:27.511Z,5.53
2018-07-04T20:20:07.556Z,5.77
2018-07-04T20:22:47.294Z,5.90
2018-07-04T20:25:20.912Z,6.60
2018-07-04T20:28:00.426Z,6.27
2018-07-04T20:30:34.201Z,6.20
2018-07-04T20:33:14.027Z,5.87
2018-07-04T20:35:53.714Z,6.03
2018-07-04T20:38:33.306Z,6.40
2018-07-04T20:41:12.997Z,5.33
2018-07-04T20:43:52.716Z,5.53
2018-07-04T20:46:32.521Z,5.90
2018-07-04T20:49:12.427Z,6.13
2018-07-04T20:51:52.033Z,5.83
2018-07-04T20:54:31.778Z,7.33
2018-07-04T20:57:11.333Z,7.10
2018-07-04T20:59:50.966Z,5.70
2018-07-04T21:02:31.980Z,6.00
2018-07-04T21:05:11.926Z,6.57
2018-07-04T21:07:51.466Z,5.50
2018-07-04T21:10:31.199Z,5.70
2018-07-04T21:13:10.799Z,6.20
2018-07-04T21:15:50.513Z,5.70
2018-07-04T21:18:30.137Z,6.00
2018-07-04T21:21:09.710Z,7.07
2018-07-04T21:23:49.447Z,5.60
2018-07-04T21:26:29.028Z,5.53
2018-07-04T21:29:10.175Z,6.20
2018-07-04T21:31:49.827Z,6.77
2018-07-04T21:34:29.798Z,6.93
2018-07-04T21:37:10.055Z,6.53
2018-07-04T21:39:53.763Z,6.33
2018-07-04T21:42:33.642Z,6.53
2018-07-04T21:45:14.719Z,6.10
2018-07-04T21:47:54.404Z,5.70
2018-07-04T21:50:33.894Z,5.73
2018-07-04T21:53:13.647Z,5.93
2018-07-04T21:55:47.251Z,6.10
2018-07-04T21:58:28.083Z,6.00
2018-07-04T22:01:07.679Z,6.20
2018-07-04T22:03:47.443Z,5.50
2018-07-04T22:06:26.982Z,6.57
2018-07-04T22:09:10.368Z,5.57
2018-07-04T22:11:50.096Z,5.57
2018-07-04T22:14:29.719Z,6.40
2018-07-04T22:17:09.191Z,5.90
2018-07-04T22:19:48.917Z,5.70
2018-07-04T22:22:28.546Z,6.00
2018-07-04T22:25:08.280Z,5.87
2018-07-04T22:27:47.987Z,5.80
2018-07-04T22:30:27.651Z,6.70
2018-07-04T22:33:07.486Z,6.77
2018-07-04T22:35:41.147Z,6.70
2018-07-04T22:38:20.970Z,6.93
2018-07-04T22:41:00.703Z,7.10
2018-07-04T22:43:40.264Z,7.07
2018-07-04T22:46:19.983Z,6.80
2018-07-04T22:48:59.675Z,6.17
2018-07-04T22:51:39.470Z,6.33
2018-07-04T22:54:12.993Z,7.30
2018-07-04T22:56:52.729Z,7.73
2018-07-04T22:59:32.427Z,6.53
2018-07-04T23:02:12.072Z,7.27
2018-07-04T23:04:51.766Z,7.40
2018-07-04T23:07:31.280Z,7.20
2018-07-04T23:10:12.467Z,7.87
2018-07-04T23:12:52.208Z,7.20
2018-07-04T23:15:26.146Z,7.63
2018-07-04T23:18:06.150Z,7.10
2018-07-04T23:20:45.764Z,8.63
2018-07-04T23:23:25.366Z,7.90
2018-07-04T23:26:05.015Z,7.93
2018-07-04T23:28:38.693Z,8.50
2018-07-04T23:31:18.269Z,8.47
2018-07-04T23:33:58.017Z,8.17
2018-07-04T23:36:37.566Z,8.30
2018-07-04T23:39:17.066Z,8.23
2018-07-04T23:41:56.714Z,8.77
2018-07-04T23:44:36.529Z,8.73
2018-07-04T23:47:16.190Z,8.00
2018-07-04T23:49:56.856Z,8.70
2018-07-04T23:52:36.523Z,7.80
2018-07-04T23:55:16.133Z,7.70
2018-07-04T23:57:55.954Z,8.40
